Time;durP1;ratioP1;P1;durP2;ratioP2;P2;SDS_P1;SDS_P2;PMS_P1;PMS_P2;Temp;Humidity;BMP_temperature;BMP_pressure;BME280_temperature;BME280_humidity;BME280_pressure;Samples;Min_cycle;Max_cycle;Signal;HPM_P1;HPM_P2
2022/05/19 00:01:15;;;;;;;0.50;0.50;;;;;;;10.14;52.80;101478.65;103701;1275;95742;-62
2022/05/19 00:03:43;;;;;;;0.50;0.50;;;;;;;10.11;53.17;101478.31;103738;1275;95277;-65
2022/05/19 00:06:12;;;;;;;0.50;0.50;;;;;;;10.10;53.08;101476.70;103635;1276;139012;-62
2022/05/19 00:08:40;;;;;;;0.50;0.50;;;;;;;10.09;53.33;101479.03;103905;1277;98474;-63
2022/05/19 00:11:13;;;;;;;0.40;0.40;;;;;;;10.07;53.10;101479.41;103606;1277;138334;-63
2022/05/19 00:13:41;;;;;;;0.50;0.40;;;;;;;10.06;53.45;101481.55;103885;1277;96156;-63
2022/05/19 00:16:10;;;;;;;0.50;0.50;;;;;;;10.07;53.37;101481.88;103706;1277;95271;-64
2022/05/19 00:18:38;;;;;;;0.60;0.60;;;;;;;10.06;53.29;101480.30;103595;1277;137952;-63
2022/05/19 00:21:06;;;;;;;0.60;0.60;;;;;;;10.04;53.23;101480.14;103697;1276;99372;-63
2022/05/19 00:23:34;;;;;;;0.60;0.60;;;;;;;10.00;53.63;101478.92;103477;1277;141735;-64
2022/05/19 00:26:03;;;;;;;0.50;0.50;;;;;;;10.02;53.65;101481.20;103634;1277;95544;-63
2022/05/19 00:28:31;;;;;;;0.50;0.50;;;;;;;10.02;53.51;101474.98;103610;1276;95151;-65
2022/05/19 00:30:59;;;;;;;0.50;0.40;;;;;;;9.97;53.32;101472.55;103528;1274;137899;-63
2022/05/19 00:33:27;;;;;;;0.50;0.50;;;;;;;9.90;53.57;101474.18;103709;1276;97789;-64
2022/05/19 00:35:55;;;;;;;0.60;0.60;;;;;;;9.83;53.70;101473.52;103476;1277;137706;-63
2022/05/19 00:38:24;;;;;;;0.60;0.60;;;;;;;9.74;54.05;101473.92;103625;1277;96053;-65
2022/05/19 00:40:58;;;;;;;0.60;0.60;;;;;;;9.65;54.31;101473.61;103661;1274;139003;-65
2022/05/19 00:43:35;;;;;;;0.60;0.60;;;;;;;9.63;54.29;101466.90;103884;1276;110296;-64
2022/05/19 00:46:19;;;;;;;0.50;0.50;;;;;;;9.68;54.21;101470.95;103783;1277;99617;-62
2022/05/19 00:49:02;;;;;;;0.50;0.50;;;;;;;9.72;54.08;101468.27;103548;1277;139270;-64
2022/05/19 00:51:34;;;;;;;0.50;0.50;;;;;;;9.72;54.10;101469.33;103647;1274;95542;-63
2022/05/19 00:54:07;;;;;;;0.60;0.60;;;;;;;9.67;54.14;101470.41;103686;1274;138548;-65
2022/05/19 00:56:42;;;;;;;0.60;0.60;;;;;;;9.63;54.05;101469.38;103733;1276;109684;-65
2022/05/19 00:59:21;;;;;;;0.60;0.60;;;;;;;9.62;53.97;101471.16;103755;1276;139344;-63
2022/05/19 01:01:49;;;;;;;0.70;0.70;;;;;;;9.60;54.24;101471.86;103695;1277;108751;-64
2022/05/19 01:04:43;;;;;;;0.60;0.60;;;;;;;9.66;53.64;101475.56;103618;1275;95261;-62
2022/05/19 01:07:17;;;;;;;0.60;0.60;;;;;;;9.67;53.98;101477.86;103876;1275;96153;-64
2022/05/19 01:09:46;;;;;;;0.70;0.70;;;;;;;9.60;54.17;101471.52;103686;1275;109701;-63
2022/05/19 01:12:15;;;;;;;0.60;0.60;;;;;;;9.61;54.06;101469.92;103722;1277;137927;-62
2022/05/19 01:14:43;;;;;;;0.60;0.60;;;;;;;9.59;54.09;101471.17;103724;1274;108798;-64
2022/05/19 01:17:11;;;;;;;0.60;0.60;;;;;;;9.52;54.43;101472.09;103517;1276;138947;-63
2022/05/19 01:19:55;;;;;;;0.60;0.60;;;;;;;9.48;54.57;101471.04;103599;1275;95260;-64
2022/05/19 01:22:34;;;;;;;0.60;0.60;;;;;;;9.49;54.59;101475.29;103910;1275;109961;-63
2022/05/19 01:25:21;;;;;;;0.50;0.50;;;;;;;9.48;54.52;101473.70;103638;1277;138918;-64
2022/05/19 01:27:50;;;;;;;0.60;0.60;;;;;;;9.45;54.74;101479.73;103757;1277;108302;-64
2022/05/19 01:30:18;;;;;;;0.60;0.60;;;;;;;9.44;54.74;101477.43;103677;1277;138430;-62
2022/05/19 01:32:46;;;;;;;0.60;0.60;;;;;;;9.46;54.81;101474.24;103956;1275;96172;-63
2022/05/19 01:35:14;;;;;;;0.60;0.60;;;;;;;9.43;54.72;101477.44;103520;1277;138098;-65
2022/05/19 01:37:42;;;;;;;0.60;0.60;;;;;;;9.40;54.55;101476.39;103887;1275;99910;-65
2022/05/19 01:40:47;;;;;;;0.60;0.60;;;;;;;9.35;54.71;101475.53;103680;1277;109195;-64
2022/05/19 01:43:36;;;;;;;0.60;0.60;;;;;;;9.18;54.70;101471.69;103434;1277;95743;-64
2022/05/19 01:46:33;;;;;;;0.60;0.60;;;;;;;9.06;55.04;101472.98;103685;1274;95163;-63
2022/05/19 01:49:29;;;;;;;0.60;0.60;;;;;;;9.08;55.28;101472.78;103782;1277;110750;-65
2022/05/19 01:52:03;;;;;;;0.60;0.60;;;;;;;9.10;54.94;101470.65;103725;1277;99538;-63
2022/05/19 01:55:11;;;;;;;0.70;0.70;;;;;;;9.09;54.81;101472.07;103683;1275;138507;-63
2022/05/19 01:57:55;;;;;;;0.60;0.60;;;;;;;9.05;55.09;101476.33;103864;1277;95602;-64
2022/05/19 02:00:26;;;;;;;0.70;0.70;;;;;;;9.03;55.48;101474.04;103610;1276;138447;-63
2022/05/19 02:02:58;;;;;;;0.70;0.70;;;;;;;9.05;54.99;101476.16;103981;1274;109794;-63
2022/05/19 02:05:48;;;;;;;0.60;0.60;;;;;;;8.97;55.15;101476.17;103839;1274;138772;-63
2022/05/19 02:08:41;;;;;;;0.60;0.60;;;;;;;8.90;55.26;101476.02;103609;1274;108826;-63
2022/05/19 02:11:15;;;;;;;0.80;0.80;;;;;;;8.85;55.81;101480.09;103594;1277;138105;-64
2022/05/19 02:13:44;;;;;;;0.70;0.70;;;;;;;8.85;55.74;101478.51;103605;1274;95910;-64
2022/05/19 02:16:15;;;;;;;0.60;0.60;;;;;;;8.86;55.75;101477.80;103726;1277;110176;-65
2022/05/19 02:18:45;;;;;;;0.70;0.70;;;;;;;8.91;55.53;101478.14;103602;1274;138635;-63
2022/05/19 02:21:17;;;;;;;0.70;0.70;;;;;;;8.94;55.33;101477.77;103762;1277;108875;-61
2022/05/19 02:23:46;;;;;;;0.60;0.60;;;;;;;8.95;55.29;101481.67;103554;1274;138273;-64
2022/05/19 02:26:14;;;;;;;0.80;0.80;;;;;;;8.86;55.70;101474.06;103803;1274;95676;-64
2022/05/19 02:28:51;;;;;;;0.70;0.70;;;;;;;8.81;55.87;101471.96;103629;1276;142300;-63
2022/05/19 02:31:19;;;;;;;0.60;0.60;;;;;;;8.70;55.57;101468.43;103845;1276;99470;-64
2022/05/19 02:33:47;;;;;;;0.70;0.70;;;;;;;8.62;55.86;101467.20;103601;1277;108771;-65
2022/05/19 02:36:15;;;;;;;0.70;0.70;;;;;;;8.62;55.93;101471.42;103557;1274;138487;-62
2022/05/19 02:38:43;;;;;;;0.70;0.70;;;;;;;8.61;56.06;101472.70;103710;1276;95278;-63
2022/05/19 02:41:12;;;;;;;0.60;0.60;;;;;;;8.57;56.19;101469.86;103579;1277;138785;-64
2022/05/19 02:43:40;;;;;;;0.70;0.70;;;;;;;8.49;56.25;101468.98;103636;1274;99405;-65
2022/05/19 02:46:08;;;;;;;0.70;0.70;;;;;;;8.45;56.06;101466.31;103597;1275;108947;-64
2022/05/19 02:48:36;;;;;;;0.60;0.60;;;;;;;8.42;56.15;101462.77;103479;1275;138757;-68
2022/05/19 02:51:04;;;;;;;0.70;0.70;;;;;;;8.46;56.09;101463.66;103695;1277;95297;-64
2022/05/19 02:53:33;;;;;;;0.70;0.70;;;;;;;8.52;56.35;101462.79;103521;1276;138182;-65
2022/05/19 02:56:01;;;;;;;0.70;0.70;;;;;;;8.56;56.03;101460.11;103735;1275;98369;-65
2022/05/19 02:58:30;;;;;;;0.70;0.70;;;;;;;8.55;56.14;101457.83;103714;1277;108897;-62
2022/05/19 03:00:58;;;;;;;0.70;0.70;;;;;;;8.50;56.09;101456.42;103629;1275;138284;-65
2022/05/19 03:03:26;;;;;;;0.80;0.80;;;;;;;8.49;56.14;101453.05;103984;1277;95224;-65
2022/05/19 03:05:56;;;;;;;0.70;0.70;;;;;;;8.52;55.89;101454.47;103606;1274;138322;-64
2022/05/19 03:08:24;;;;;;;0.70;0.70;;;;;;;8.58;56.10;101456.41;103641;1276;99543;-64
2022/05/19 03:10:52;;;;;;;0.70;0.70;;;;;;;8.63;56.09;101457.10;103573;1275;138534;-63
2022/05/19 03:13:22;;;;;;;0.70;0.70;;;;;;;8.65;56.04;101461.54;103658;1277;95517;-64
2022/05/19 03:15:50;;;;;;;0.60;0.60;;;;;;;8.70;55.40;101462.06;104087;1275;95233;-66
2022/05/19 03:18:19;;;;;;;0.60;0.60;;;;;;;8.76;55.99;101463.64;103662;1277;138504;-63
2022/05/19 03:20:47;;;;;;;0.70;0.70;;;;;;;8.78;56.53;101457.61;103876;1274;99294;-62
2022/05/19 03:23:15;;;;;;;0.70;0.70;;;;;;;8.78;56.26;101460.45;103545;1275;138826;-60
2022/05/19 03:25:43;;;;;;;0.70;0.70;;;;;;;8.81;56.45;101458.15;103667;1277;95186;-63
2022/05/19 03:28:14;;;;;;;0.70;0.70;;;;;;;8.87;56.39;101458.48;103724;1275;95191;-64
2022/05/19 03:30:43;;;;;;;0.70;0.70;;;;;;;8.94;56.46;101457.41;103647;1277;138389;-64
2022/05/19 03:33:11;;;;;;;0.70;0.70;;;;;;;9.02;56.16;101457.21;103713;1277;99502;-64
2022/05/19 03:35:40;;;;;;;0.70;0.70;;;;;;;9.09;56.50;101455.23;103733;1275;137857;-64
2022/05/19 03:38:08;;;;;;;0.70;0.70;;;;;;;9.06;57.04;101455.79;103911;1277;95284;-64
2022/05/19 03:40:36;;;;;;;0.70;0.70;;;;;;;9.09;56.64;101461.26;103680;1274;95226;-64
2022/05/19 03:43:04;;;;;;;0.60;0.60;;;;;;;9.20;56.58;101461.05;103532;1276;137891;-63
2022/05/19 03:45:40;;;;;;;0.60;0.60;;;;;;;9.31;56.10;101465.79;103728;1275;98988;-63
2022/05/19 03:48:08;;;;;;;0.60;0.60;;;;;;;9.41;56.29;101466.99;103668;1277;138139;-62
2022/05/19 03:50:38;;;;;;;0.70;0.70;;;;;;;9.47;56.41;101468.03;103773;1274;96031;-65
2022/05/19 03:53:06;;;;;;;0.60;0.60;;;;;;;9.56;56.30;101464.79;103662;1277;138859;-65
2022/05/19 03:55:34;;;;;;;0.60;0.60;;;;;;;9.71;55.48;101462.95;103573;1275;109728;-64
2022/05/19 03:58:02;;;;;;;0.60;0.60;;;;;;;9.86;53.96;101465.88;103432;1275;342237;-64
2022/05/19 04:00:32;;;;;;;0.60;0.60;;;;;;;9.97;52.87;101457.47;103537;1274;138656;-64
2022/05/19 04:03:00;;;;;;;0.60;0.60;;;;;;;10.05;51.81;101459.73;103715;1274;95321;-64
2022/05/19 04:05:29;;;;;;;0.60;0.60;;;;;;;10.15;51.36;101455.56;103763;1277;138064;-64
2022/05/19 04:07:57;;;;;;;0.60;0.60;;;;;;;10.19;50.44;101457.31;103645;1276;109623;-64
2022/05/19 04:10:29;;;;;;;0.60;0.60;;;;;;;10.25;49.93;101459.20;104122;1274;99727;-64
2022/05/19 04:12:57;;;;;;;0.60;0.60;;;;;;;10.36;49.91;101456.84;103560;1274;137843;-63
2022/05/19 04:15:26;;;;;;;0.60;0.60;;;;;;;10.48;49.72;101456.04;103579;1274;96096;-63
2022/05/19 04:17:54;;;;;;;0.60;0.60;;;;;;;10.56;49.26;101452.77;103571;1274;138048;-64
2022/05/19 04:20:22;;;;;;;0.60;0.60;;;;;;;10.65;48.13;101458.90;103758;1274;109629;-65
2022/05/19 04:22:50;;;;;;;0.60;0.60;;;;;;;10.73;47.92;101456.52;103681;1275;138441;-63
2022/05/19 04:25:18;;;;;;;0.60;0.60;;;;;;;10.83;47.78;101453.58;103651;1277;108915;-62
2022/05/19 04:27:46;;;;;;;0.60;0.60;;;;;;;10.91;46.70;101448.52;103677;1277;95543;-64
2022/05/19 04:30:15;;;;;;;0.60;0.60;;;;;;;10.96;46.28;101449.35;103492;1277;138243;-63
2022/05/19 04:32:44;;;;;;;0.60;0.60;;;;;;;11.04;46.57;101452.63;103714;1277;108728;-62
2022/05/19 04:35:14;;;;;;;0.50;0.50;;;;;;;11.14;46.28;101453.94;103745;1275;138941;-64
2022/05/19 04:37:43;;;;;;;0.50;0.50;;;;;;;11.24;45.47;101454.52;103606;1274;109040;-64
2022/05/19 04:40:12;;;;;;;0.50;0.50;;;;;;;11.32;45.06;101447.50;103588;1276;95424;-64
2022/05/19 04:42:40;;;;;;;0.50;0.50;;;;;;;11.45;45.65;101451.09;103961;1276;138635;-63
2022/05/19 04:45:12;;;;;;;0.60;0.60;;;;;;;11.55;44.52;101445.42;104242;1276;110447;-65
2022/05/19 04:47:41;;;;;;;0.50;0.50;;;;;;;11.69;45.15;101442.92;103617;1277;138777;-64
2022/05/19 04:50:10;;;;;;;0.50;0.50;;;;;;;11.81;44.42;101441.31;103770;1277;107752;-64
2022/05/19 04:52:38;;;;;;;0.50;0.50;;;;;;;11.92;43.65;101441.20;103621;1277;95932;-63
2022/05/19 04:55:07;;;;;;;0.50;0.40;;;;;;;12.07;43.69;101442.92;103723;1276;95507;-65
2022/05/19 04:57:36;;;;;;;0.50;0.50;;;;;;;12.22;43.40;101446.79;103624;1277;109667;-64
2022/05/19 05:00:07;;;;;;;0.50;0.40;;;;;;;12.29;43.04;101445.77;103530;1277;138487;-62
2022/05/19 05:02:35;;;;;;;0.50;0.40;;;;;;;12.45;43.03;101446.95;103638;1277;108609;-64
2022/05/19 05:05:06;;;;;;;0.40;0.40;;;;;;;12.55;42.04;101443.73;104002;1277;138357;-64
2022/05/19 05:07:34;;;;;;;0.40;0.40;;;;;;;12.70;42.53;101444.16;103697;1277;95236;-64
2022/05/19 05:10:02;;;;;;;0.40;0.30;;;;;;;12.90;42.25;101444.35;103616;1277;109929;-64
2022/05/19 05:12:30;;;;;;;0.40;0.40;;;;;;;13.05;41.76;101446.55;103429;1276;138690;-63
2022/05/19 05:14:59;;;;;;;0.40;0.40;;;;;;;13.18;41.46;101446.81;103667;1277;108791;-62
2022/05/19 05:17:27;;;;;;;0.40;0.30;;;;;;;13.31;41.11;101445.68;103563;1277;139018;-64
2022/05/19 05:19:55;;;;;;;0.40;0.30;;;;;;;13.47;41.07;101443.57;103490;1277;95169;-65
2022/05/19 05:22:23;;;;;;;0.40;0.30;;;;;;;13.62;40.53;101444.15;103379;1276;109904;-63
2022/05/19 05:24:51;;;;;;;0.40;0.30;;;;;;;13.75;39.71;101443.48;103324;1276;138741;-62
2022/05/19 05:27:19;;;;;;;0.40;0.30;;;;;;;13.86;39.39;101436.10;103416;1275;110132;-62
2022/05/19 05:29:52;;;;;;;0.40;0.30;;;;;;;14.02;39.34;101433.58;103514;1277;139360;-63
2022/05/19 05:32:20;;;;;;;0.40;0.30;;;;;;;14.15;39.57;101435.23;103564;1277;95496;-63
2022/05/19 05:34:48;;;;;;;0.40;0.30;;;;;;;14.30;39.49;101434.69;103729;1277;138983;-62
2022/05/19 05:37:16;;;;;;;0.40;0.30;;;;;;;14.42;38.00;101434.91;103618;1277;99366;-62
2022/05/19 05:39:44;;;;;;;0.40;0.30;;;;;;;14.55;36.90;101441.75;103526;1277;108786;-64
2022/05/19 05:42:12;;;;;;;0.40;0.30;;;;;;;14.69;37.40;101446.39;103482;1277;138886;-63
2022/05/19 05:44:40;;;;;;;0.40;0.20;;;;;;;14.84;36.56;101447.96;103662;1277;96127;-62
2022/05/19 05:47:08;;;;;;;0.40;0.30;;;;;;;14.98;36.25;101451.69;103596;1277;138365;-61
2022/05/19 05:49:37;;;;;;;0.40;0.30;;;;;;;15.14;36.22;101449.84;103774;1277;99530;-62
2022/05/19 05:52:06;;;;;;;0.40;0.20;;;;;;;15.29;35.58;101446.89;103764;1275;108899;-62
2022/05/19 05:54:34;;;;;;;0.40;0.20;;;;;;;15.47;34.43;101446.02;103887;1277;138826;-63
2022/05/19 05:57:03;;;;;;;0.40;0.20;;;;;;;15.63;34.38;101447.50;103767;1277;95196;-63
2022/05/19 05:59:31;;;;;;;0.40;0.20;;;;;;;15.75;33.96;101448.73;103698;1276;138753;-62
2022/05/19 06:01:59;;;;;;;0.40;0.20;;;;;;;15.87;33.75;101448.23;103951;1275;99340;-63
2022/05/19 06:04:27;;;;;;;0.40;0.20;;;;;;;15.97;33.03;101449.52;103896;1277;107565;-63
2022/05/19 06:06:55;;;;;;;0.40;0.20;;;;;;;16.09;33.38;101450.39;103504;1276;138663;-64
2022/05/19 06:09:23;;;;;;;0.40;0.20;;;;;;;16.24;33.78;101452.77;103668;1276;95255;-63
2022/05/19 06:11:51;;;;;;;0.40;0.20;;;;;;;16.38;33.57;101455.34;103629;1277;138389;-63
2022/05/19 06:14:19;;;;;;;0.40;0.20;;;;;;;16.48;33.32;101451.41;103630;1276;99360;-63
2022/05/19 06:16:47;;;;;;;0.40;0.20;;;;;;;16.59;32.96;101451.02;103530;1276;138446;-63
2022/05/19 06:19:18;;;;;;;0.40;0.20;;;;;;;16.69;32.09;101451.60;103697;1275;95267;-64
2022/05/19 06:21:46;;;;;;;0.40;0.20;;;;;;;16.82;31.78;101447.20;103764;1274;95509;-64
2022/05/19 06:24:15;;;;;;;0.40;0.20;;;;;;;16.97;30.23;101448.48;103647;1277;138616;-63
2022/05/19 06:26:43;;;;;;;0.40;0.20;;;;;;;17.24;30.06;101446.08;103737;1277;99919;-65
2022/05/19 06:29:12;;;;;;;0.40;0.20;;;;;;;17.57;30.12;101444.81;103470;1276;138525;-62
2022/05/19 06:31:40;;;;;;;0.40;0.20;;;;;;;17.95;29.05;101439.77;103738;1277;95265;-65
2022/05/19 06:34:10;;;;;;;0.40;0.10;;;;;;;18.26;28.27;101436.15;103637;1275;95255;-64
2022/05/19 06:36:43;;;;;;;0.40;0.10;;;;;;;18.63;28.56;101434.05;103651;1277;138269;-64
2022/05/19 06:39:11;;;;;;;0.40;0.10;;;;;;;18.81;28.02;101433.27;103626;1277;99648;-63
2022/05/19 06:44:25;;;;;;;0.40;0.10;;;;;;;18.82;27.41;101433.40;103586;1274;95579;-62
2022/05/19 06:46:53;;;;;;;0.40;0.10;;;;;;;18.79;27.05;101434.61;103509;1274;138450;-63
2022/05/19 06:49:21;;;;;;;0.40;0.10;;;;;;;18.78;27.01;101436.83;103588;1274;109659;-64
2022/05/19 06:51:49;;;;;;;0.40;0.10;;;;;;;18.81;26.59;101434.71;103632;1274;99492;-64
2022/05/19 06:54:20;;;;;;;0.40;0.10;;;;;;;18.94;27.20;101437.59;103421;1274;138256;-65
2022/05/19 06:56:47;;;;;;;0.40;0.10;;;;;;;19.07;26.69;101436.61;103630;1276;95516;-65
2022/05/19 06:59:16;;;;;;;0.40;0.10;;;;;;;19.16;25.94;101431.55;103410;1276;138974;-63
2022/05/19 07:01:45;;;;;;;0.40;0.10;;;;;;;19.17;25.58;101429.34;103467;1277;109817;-63
2022/05/19 07:04:17;;;;;;;0.40;0.10;;;;;;;19.15;25.18;101432.86;103679;1276;99445;-63
2022/05/19 07:06:44;;;;;;;0.40;0.10;;;;;;;19.16;25.39;101429.23;103313;1276;138931;-64
2022/05/19 07:09:12;;;;;;;0.40;0.10;;;;;;;19.21;25.44;101424.65;103595;1277;96124;-64
2022/05/19 07:11:40;;;;;;;0.40;0.10;;;;;;;19.34;25.83;101421.55;103523;1276;138368;-65
2022/05/19 07:14:12;;;;;;;0.40;0.10;;;;;;;19.45;25.26;101420.16;103545;1274;108736;-63
2022/05/19 07:16:43;;;;;;;0.40;0.10;;;;;;;19.51;25.17;101414.78;103659;1274;99385;-62
2022/05/19 07:21:58;;;;;;;0.40;0.10;;;;;;;19.64;24.06;101410.59;103589;1276;95255;-64
2022/05/19 07:24:26;;;;;;;0.40;0.10;;;;;;;19.70;24.60;101413.15;103546;1276;138742;-64
2022/05/19 07:26:56;;;;;;;0.40;0.10;;;;;;;19.80;24.23;101411.45;103465;1277;109713;-64
2022/05/19 07:29:25;;;;;;;0.40;0.10;;;;;;;19.83;24.42;101413.84;103589;1277;138595;-65
2022/05/19 07:32:01;;;;;;;0.40;0.10;;;;;;;19.89;24.00;101412.13;103646;1277;109196;-64
2022/05/19 07:34:32;;;;;;;0.40;0.10;;;;;;;19.95;23.52;101408.75;103372;1277;97912;-63
2022/05/19 07:37:00;;;;;;;0.40;0.10;;;;;;;20.00;23.85;101405.41;103395;1274;141462;-63
2022/05/19 07:39:28;;;;;;;0.40;0.10;;;;;;;20.08;23.69;101406.14;103621;1274;110718;-65
2022/05/19 07:41:58;;;;;;;0.40;0.10;;;;;;;20.18;24.32;101404.17;103414;1274;138529;-65
2022/05/19 07:44:28;;;;;;;0.40;0.10;;;;;;;20.28;23.88;101404.80;103794;1274;108731;-64
2022/05/19 07:46:56;;;;;;;0.40;0.10;;;;;;;20.39;23.47;101403.46;103647;1277;139266;-64
2022/05/19 07:49:25;;;;;;;0.40;0.10;;;;;;;20.49;22.42;101402.75;103713;1277;95740;-65
2022/05/19 07:51:53;;;;;;;0.40;0.10;;;;;;;20.56;22.33;101403.12;103543;1277;110055;-64
2022/05/19 07:54:24;;;;;;;0.40;0.10;;;;;;;20.64;21.49;101397.11;103379;1277;138872;-66
2022/05/19 07:56:53;;;;;;;0.40;0.10;;;;;;;20.76;21.48;101390.96;103762;1277;108786;-65
2022/05/19 07:59:21;;;;;;;0.40;0.10;;;;;;;20.84;22.57;101389.83;103395;1274;138687;-65
2022/05/19 08:01:49;;;;;;;0.40;0.10;;;;;;;20.89;21.18;101393.13;103506;1274;95219;-65
2022/05/19 08:04:21;;;;;;;0.40;0.10;;;;;;;20.98;21.30;101389.23;103441;1274;110673;-64
2022/05/19 08:06:49;;;;;;;0.40;0.10;;;;;;;21.05;21.40;101384.70;103449;1276;138509;-64
2022/05/19 08:12:06;;;;;;;0.40;0.10;;;;;;;21.15;21.39;101383.77;103341;1277;138956;-65
2022/05/19 08:17:31;;;;;;;0.40;0.10;;;;;;;21.40;20.96;101389.30;103470;1274;138744;-64
2022/05/19 08:20:00;;;;;;;0.40;0.10;;;;;;;21.46;20.72;101392.05;103593;1274;99396;-64
2022/05/19 08:22:28;;;;;;;0.40;0.10;;;;;;;21.55;20.24;101394.42;103689;1274;108982;-65
2022/05/19 08:24:58;;;;;;;0.40;0.10;;;;;;;21.61;20.63;101394.30;103449;1277;139012;-63
2022/05/19 08:27:26;;;;;;;0.40;0.10;;;;;;;21.73;20.69;101388.35;103513;1276;95271;-65
2022/05/19 08:29:54;;;;;;;0.40;0.10;;;;;;;21.80;20.49;101385.27;103523;1277;138700;-65
2022/05/19 08:32:23;;;;;;;0.40;0.10;;;;;;;21.87;20.51;101378.86;103611;1277;99209;-64
2022/05/19 08:34:52;;;;;;;0.40;0.10;;;;;;;22.01;20.81;101373.19;103732;1277;139823;-66
2022/05/19 08:37:20;;;;;;;0.40;0.10;;;;;;;22.12;20.30;101373.64;103710;1274;96677;-66
2022/05/19 08:39:49;;;;;;;0.40;0.10;;;;;;;22.21;19.85;101370.73;103544;1274;96018;-66
2022/05/19 08:42:19;;;;;;;0.40;0.10;;;;;;;22.35;19.90;101366.46;103463;1277;138237;-65
2022/05/19 08:44:52;;;;;;;0.40;0.10;;;;;;;22.51;20.18;101367.88;103713;1277;99380;-65
2022/05/19 08:47:24;;;;;;;0.40;0.10;;;;;;;22.72;19.69;101369.48;103554;1277;138621;-65
2022/05/19 08:50:01;;;;;;;0.40;0.00;;;;;;;22.90;19.56;101369.61;103434;1275;95511;-63
2022/05/19 08:52:42;;;;;;;0.40;0.10;;;;;;;23.04;19.64;101369.28;103703;1275;95245;-65
2022/05/19 08:55:14;;;;;;;0.40;0.10;;;;;;;23.28;19.81;101365.26;103613;1276;109794;-65
2022/05/19 08:57:45;;;;;;;0.40;0.10;;;;;;;23.44;18.80;101364.40;103784;1277;99881;-65
2022/05/19 09:00:26;;;;;;;0.40;0.00;;;;;;;23.55;18.42;101357.20;103624;1276;138373;-64
2022/05/19 09:02:54;;;;;;;0.40;0.10;;;;;;;23.62;18.73;101355.26;103561;1277;96139;-66
2022/05/19 09:05:45;;;;;;;0.40;0.10;;;;;;;23.72;18.40;101356.07;103424;1275;138454;-65
2022/05/19 09:08:19;;;;;;;0.40;0.10;;;;;;;23.81;18.46;101354.04;103645;1277;109691;-65
2022/05/19 09:11:14;;;;;;;0.40;0.10;;;;;;;24.01;19.07;101349.98;103553;1277;138769;-65
2022/05/19 09:13:53;;;;;;;0.40;0.10;;;;;;;24.19;18.28;101342.77;103615;1277;108889;-65
2022/05/19 09:16:24;;;;;;;0.40;0.10;;;;;;;24.29;18.42;101344.25;104436;1277;95583;-66
2022/05/19 09:19:02;;;;;;;0.40;0.10;;;;;;;24.43;18.12;101346.75;103718;1276;138282;-65
2022/05/19 09:21:30;;;;;;;0.40;0.00;;;;;;;24.68;18.50;101343.91;103672;1277;109717;-65
2022/05/19 09:23:58;;;;;;;0.40;0.10;;;;;;;24.90;17.29;101346.59;103634;1276;138588;-65
2022/05/19 09:26:35;;;;;;;0.40;0.10;;;;;;;25.24;18.08;101350.67;103633;1277;108876;-66
2022/05/19 09:29:14;;;;;;;0.40;0.00;;;;;;;26.71;17.03;101341.20;103443;1276;138653;-65
2022/05/19 09:31:47;;;;;;;0.40;0.00;;;;;;;28.22;15.82;101340.47;103651;1277;96105;-64
2022/05/19 09:34:16;;;;;;;0.40;0.00;;;;;;;29.26;15.21;101340.35;103518;1277;111324;-65
2022/05/19 09:37:00;;;;;;;0.40;0.00;;;;;;;30.04;13.92;101335.77;103637;1276;138935;-65
2022/05/19 09:39:33;;;;;;;0.40;0.00;;;;;;;30.76;13.63;101333.88;103624;1277;108737;-64
2022/05/19 09:42:13;;;;;;;0.40;0.00;;;;;;;31.89;13.52;101328.91;103675;1277;138857;-65
2022/05/19 09:44:50;;;;;;;0.40;0.00;;;;;;;32.87;11.90;101322.83;103637;1277;95716;-64
2022/05/19 09:47:26;;;;;;;0.40;0.00;;;;;;;33.43;11.77;101325.82;103606;1277;138522;-65
2022/05/19 09:50:04;;;;;;;0.40;0.00;;;;;;;34.16;11.97;101318.41;103539;1276;100294;-65
2022/05/19 09:52:32;;;;;;;0.40;0.00;;;;;;;34.55;11.36;101313.10;103617;1276;107816;-64
2022/05/19 09:55:05;;;;;;;0.40;0.00;;;;;;;34.54;11.00;101311.37;103407;1277;138435;-64
2022/05/19 09:57:42;;;;;;;0.40;0.00;;;;;;;34.89;11.10;101317.89;103757;1276;95732;-64
2022/05/19 10:00:43;;;;;;;0.40;0.00;;;;;;;35.58;11.33;101315.56;103504;1277;138929;-65
2022/05/19 10:03:32;;;;;;;0.40;0.00;;;;;;;36.53;11.17;101303.98;103737;1276;99379;-65
2022/05/19 10:06:35;;;;;;;0.40;0.00;;;;;;;36.97;10.35;101299.32;103446;1277;138930;-65
2022/05/19 10:09:13;;;;;;;0.40;0.00;;;;;;;37.45;10.34;101301.16;103760;1277;96352;-64
2022/05/19 10:12:00;;;;;;;0.40;0.00;;;;;;;37.73;9.66;101297.70;103602;1277;138923;-65
2022/05/19 10:14:31;;;;;;;0.40;0.00;;;;;;;37.63;9.35;101294.86;103669;1277;109869;-64
2022/05/19 10:17:17;;;;;;;0.40;0.00;;;;;;;37.69;9.92;101297.05;103585;1277;139185;-64
2022/05/19 10:19:54;;;;;;;0.40;0.00;;;;;;;37.99;9.60;101286.86;103575;1277;108786;-65
2022/05/19 10:23:01;;;;;;;0.40;0.00;;;;;;;38.28;9.07;101284.45;103580;1275;95618;-64
2022/05/19 10:25:53;;;;;;;0.40;0.00;;;;;;;38.47;9.25;101278.80;103620;1277;95235;-63
2022/05/19 10:32:07;;;;;;;0.40;0.00;;;;;;;38.50;9.41;101264.60;103675;1277;98401;-65
2022/05/19 10:34:53;;;;;;;0.40;0.00;;;;;;;39.07;9.23;101261.02;103747;1275;108804;-65
2022/05/19 10:37:40;;;;;;;0.40;0.00;;;;;;;39.16;8.66;101261.48;103595;1277;95229;-65
2022/05/19 10:40:16;;;;;;;0.40;0.00;;;;;;;39.37;8.72;101252.64;103592;1277;95143;-65
2022/05/19 10:43:12;;;;;;;0.40;0.00;;;;;;;38.54;8.21;101253.61;103484;1277;138105;-64
2022/05/19 10:45:47;;;;;;;0.40;0.00;;;;;;;37.84;8.59;101248.92;103696;1277;99537;-64
2022/05/19 10:48:30;;;;;;;0.40;0.00;;;;;;;37.84;9.02;101252.53;103625;1277;138125;-65
2022/05/19 10:51:10;;;;;;;0.40;0.00;;;;;;;38.30;9.16;101244.14;103573;1277;95500;-65
2022/05/19 10:54:19;;;;;;;0.40;0.00;;;;;;;38.81;8.17;101237.95;103608;1277;138244;-65
2022/05/19 10:57:06;;;;;;;0.40;0.00;;;;;;;37.85;8.47;101234.42;103611;1277;109876;-65
2022/05/19 10:59:46;;;;;;;0.40;0.00;;;;;;;35.96;8.51;101235.37;103491;1276;138792;-65
2022/05/19 11:02:43;;;;;;;0.40;0.00;;;;;;;34.42;9.54;101236.39;103545;1277;107736;-64
2022/05/19 11:05:36;;;;;;;0.40;0.00;;;;;;;33.41;10.12;101235.89;103595;1277;138450;-65
2022/05/19 11:08:40;;;;;;;0.40;0.00;;;;;;;32.77;10.73;101221.68;103556;1277;96266;-64
2022/05/19 11:11:19;;;;;;;0.40;0.00;;;;;;;32.20;11.49;101221.65;103562;1277;138546;-65
2022/05/19 11:14:35;;;;;;;0.40;0.00;;;;;;;31.43;12.10;101216.45;103645;1277;99444;-65
2022/05/19 11:17:31;;;;;;;0.40;0.00;;;;;;;30.99;12.13;101210.64;103206;1277;138483;-64
2022/05/19 11:20:11;;;;;;;0.40;0.00;;;;;;;30.46;12.63;101205.33;103837;1277;95268;-64
2022/05/19 11:22:40;;;;;;;0.40;0.00;;;;;;;29.99;12.31;101202.96;103747;1275;95140;-65
2022/05/19 11:28:28;;;;;;;0.40;0.00;;;;;;;29.57;13.67;101186.20;103613;1275;99359;-65
2022/05/19 11:31:01;;;;;;;0.40;0.00;;;;;;;29.23;13.49;101188.45;103447;1277;138256;-64
2022/05/19 11:33:39;;;;;;;0.40;0.00;;;;;;;28.78;13.74;101186.35;103549;1277;95235;-65
2022/05/19 11:36:17;;;;;;;0.40;0.00;;;;;;;28.38;13.97;101186.02;104012;1277;138842;-64
2022/05/19 11:38:57;;;;;;;0.40;0.00;;;;;;;28.27;14.65;101181.04;103669;1277;110215;-64
2022/05/19 11:41:30;;;;;;;0.40;0.00;;;;;;;28.12;14.53;101178.33;104004;1277;138952;-65
2022/05/19 11:44:07;;;;;;;0.40;0.00;;;;;;;27.87;14.30;101179.40;103657;1277;108835;-64
2022/05/19 11:46:44;;;;;;;0.40;0.00;;;;;;;27.79;14.86;101179.90;103545;1277;95310;-66
2022/05/19 11:55:39;;;;;;;0.40;0.00;;;;;;;27.58;14.56;101151.08;103605;1277;99453;-64
2022/05/19 11:58:27;;;;;;;0.40;0.00;;;;;;;27.54;14.51;101148.44;103498;1276;109027;-65
2022/05/19 12:01:18;;;;;;;0.40;0.00;;;;;;;27.33;14.04;101146.73;103480;1277;138474;-65
2022/05/19 12:04:15;;;;;;;0.40;0.00;;;;;;;27.19;13.64;101143.75;103724;1277;95153;-65
2022/05/19 12:06:55;;;;;;;0.40;0.00;;;;;;;27.12;14.53;101141.06;103442;1277;138666;-65